Terminal Aerodrome Forecast
Issued by NWS

Home | Current Version | Previous Version | Text Only | Print | Product List | Glossary On
Versions: 1 2 3 4 5 6 7 8 9 10 11 12 13 14 15 16 17 18 19 20 21 22 23 24 25 26 27 28 29 30
000
FTUS41 KRNK 281132 AAC
TAFLWB
TAF AMD
KLWB 281132Z 2812/2912 00000KT 1/4SM FG OVC001
      TEMPO 2812/2814 3SM BR BKN010
     FM281600 22004KT P6SM BKN040
     FM282000 24005KT 3SM TSRA BKN035CB
     FM290000 25004KT P6SM BKN070
     FM290700 26005KT P6SM BKN025=

USA.gov is the U.S. government's official web portal to all federal, state and local government web resources and services.